Time;durP1;ratioP1;P1;durP2;ratioP2;P2;SDS_P1;SDS_P2;PMS_P1;PMS_P2;Temp;Humidity;BMP_temperature;BMP_pressure;BME280_temperature;BME280_humidity;BME280_pressure;Samples;Min_cycle;Max_cycle;Signal;HPM_P1;HPM_P2
2023/01/19 04:50:01;;;;;;;5.03;4.00;;;-8.00;99.90;;;;;;5726521;23;20223;-74
2023/01/19 04:52:33;;;;;;;5.40;4.20;;;-8.10;99.90;;;;;;4975707;28;20572;-74
2023/01/19 04:55:00;;;;;;;6.32;4.25;;;-8.20;99.90;;;;;;4975989;28;20216;-74
2023/01/19 04:57:27;;;;;;;5.20;4.70;;;-8.10;99.90;;;;;;4975730;28;20232;-76
2023/01/19 04:59:53;;;;;;;4.20;3.75;;;-8.10;99.90;;;;;;4975458;28;20230;-76
2023/01/19 05:02:21;;;;;;;4.35;3.95;;;-8.20;99.90;;;;;;4975578;28;20254;-72
2023/01/19 05:04:48;;;;;;;7.15;4.32;;;-8.20;99.90;;;;;;4975674;28;20203;-72
2023/01/19 05:07:16;;;;;;;4.68;4.20;;;-8.10;99.90;;;;;;4975251;28;20219;-77
2023/01/19 05:09:43;;;;;;;6.13;4.97;;;-8.10;99.90;;;;;;4974929;28;20583;-77
2023/01/19 05:12:10;;;;;;;5.22;4.75;;;-8.10;99.90;;;;;;4975486;28;20287;-77
2023/01/19 05:14:37;;;;;;;5.32;4.80;;;-8.20;99.90;;;;;;4957847;28;20729;-77
2023/01/19 05:17:04;;;;;;;6.07;4.75;;;-8.20;99.90;;;;;;4975297;28;20203;-77
2023/01/19 05:19:31;;;;;;;5.20;4.70;;;-8.20;99.90;;;;;;4975166;28;20230;-77
2023/01/19 05:21:58;;;;;;;5.20;4.80;;;-8.20;99.90;;;;;;4974914;28;20786;-76
2023/01/19 05:24:26;;;;;;;5.57;4.55;;;-8.30;99.90;;;;;;4975280;28;20206;-76
2023/01/19 05:26:52;;;;;;;5.53;4.65;;;-8.30;99.90;;;;;;4974774;28;20594;-76
2023/01/19 05:29:19;;;;;;;5.18;4.65;;;-8.40;99.90;;;;;;4975117;28;20223;-75
2023/01/19 05:31:46;;;;;;;4.20;3.88;;;-8.40;99.90;;;;;;4975261;28;20203;-76
2023/01/19 05:34:14;;;;;;;7.78;4.95;;;-8.40;99.90;;;;;;4975111;28;20203;-76
2023/01/19 05:36:41;;;;;;;6.60;4.45;;;-8.40;99.90;;;;;;4975181;28;20624;-76
2023/01/19 05:39:08;;;;;;;5.78;4.97;;;-8.40;99.90;;;;;;4976150;28;20733;-76
2023/01/19 05:41:36;;;;;;;12.93;6.78;;;-8.40;99.90;;;;;;4978897;28;20214;-76
2023/01/19 05:44:03;;;;;;;13.27;7.60;;;-8.40;99.90;;;;;;4980451;28;20202;-76
2023/01/19 05:46:29;;;;;;;32.60;13.63;;;-8.50;99.90;;;;;;4980302;28;20223;-76
2023/01/19 05:48:57;;;;;;;22.45;11.40;;;-8.50;99.90;;;;;;4977698;28;20543;-76
2023/01/19 05:51:24;;;;;;;12.50;7.70;;;-8.60;99.90;;;;;;4975462;28;20208;-77
2023/01/19 05:53:51;;;;;;;10.77;6.72;;;-8.60;99.90;;;;;;4974678;28;20210;-76
2023/01/19 05:56:17;;;;;;;10.85;5.80;;;-8.60;99.90;;;;;;4974583;28;20725;-76
2023/01/19 05:58:45;;;;;;;5.03;4.53;;;-8.60;99.90;;;;;;4974826;28;20226;-76
2023/01/19 06:01:12;;;;;;;4.93;4.40;;;-8.60;99.90;;;;;;4974805;28;20231;-75
2023/01/19 06:03:39;;;;;;;4.20;3.80;;;-8.60;99.90;;;;;;4976305;28;20214;-78
2023/01/19 06:06:06;;;;;;;4.95;4.55;;;-8.60;99.90;;;;;;4974586;28;20695;-76
2023/01/19 06:08:33;;;;;;;5.80;4.30;;;-8.70;99.90;;;;;;4974638;28;20207;-76
2023/01/19 06:11:00;;;;;;;6.97;4.32;;;-8.70;99.90;;;;;;4975186;28;20706;-76
2023/01/19 06:13:27;;;;;;;5.35;4.78;;;-8.70;99.90;;;;;;4978455;28;20207;-76
2023/01/19 06:15:59;;;;;;;5.30;4.47;;;-8.70;99.90;;;;;;4978509;28;20203;-76
2023/01/19 06:18:25;;;;;;;4.60;4.13;;;-8.70;99.90;;;;;;4978216;28;20671;-76
2023/01/19 06:20:57;;;;;;;6.47;4.97;;;-8.70;99.90;;;;;;4978262;28;20223;-76
2023/01/19 06:23:24;;;;;;;4.68;4.32;;;-8.80;99.90;;;;;;4979129;28;20207;-75
2023/01/19 06:25:51;;;;;;;4.45;4.05;;;-8.80;99.90;;;;;;4978206;28;20210;-76
2023/01/19 06:28:18;;;;;;;4.43;4.03;;;-8.90;99.90;;;;;;4978468;28;20207;-76
2023/01/19 06:30:48;;;;;;;6.70;4.25;;;-8.90;99.90;;;;;;4978285;28;20230;-76
2023/01/19 06:33:16;;;;;;;4.70;4.05;;;-8.90;99.90;;;;;;4978809;28;20226;-76
2023/01/19 06:35:43;;;;;;;7.50;4.55;;;-8.90;99.90;;;;;;4981461;28;20207;-79
2023/01/19 06:38:12;;;;;;;4.18;3.80;;;-8.80;99.90;;;;;;4983054;28;20199;-79
2023/01/19 06:40:39;;;;;;;4.82;4.32;;;-8.80;99.90;;;;;;4982830;28;20255;-79
2023/01/19 06:43:05;;;;;;;6.82;4.65;;;-8.80;99.90;;;;;;4982575;28;20210;-79
2023/01/19 06:45:32;;;;;;;5.43;4.70;;;-8.80;99.90;;;;;;4979893;28;20204;-78
2023/01/19 06:47:59;;;;;;;6.32;5.60;;;-8.80;99.90;;;;;;4980248;28;20223;-78
2023/01/19 06:50:27;;;;;;;5.05;4.65;;;-8.80;99.90;;;;;;4981779;28;20226;-79
2023/01/19 06:52:54;;;;;;;4.90;4.38;;;-8.80;99.90;;;;;;4982459;28;20207;-79
2023/01/19 06:55:21;;;;;;;9.27;4.82;;;-8.80;99.90;;;;;;4982623;28;20203;-81
2023/01/19 06:57:47;;;;;;;5.65;5.05;;;-8.80;99.90;;;;;;4983486;28;20204;-79
2023/01/19 07:00:15;;;;;;;6.90;5.20;;;-8.80;99.90;;;;;;4983052;28;20231;-80
2023/01/19 07:02:42;;;;;;;6.30;5.72;;;-8.70;99.90;;;;;;4982642;28;20211;-80
2023/01/19 07:05:10;;;;;;;8.52;5.68;;;-8.70;99.90;;;;;;4979588;28;20335;-80
2023/01/19 07:07:38;;;;;;;8.02;6.10;;;-8.70;99.90;;;;;;4980066;28;20616;-80
2023/01/19 07:10:06;;;;;;;12.82;5.88;;;-8.70;99.90;;;;;;4982320;28;20282;-80
2023/01/19 07:12:33;;;;;;;7.45;5.63;;;-8.70;99.90;;;;;;4979535;28;20223;-79
2023/01/19 07:15:00;;;;;;;10.80;5.75;;;-8.70;99.90;;;;;;4981747;28;20204;-80
2023/01/19 07:17:27;;;;;;;11.05;5.60;;;-8.70;99.90;;;;;;4982739;28;20211;-80
2023/01/19 07:19:53;;;;;;;9.57;6.53;;;-8.70;99.90;;;;;;4979502;28;20564;-80
2023/01/19 07:22:20;;;;;;;11.27;6.88;;;-8.80;99.90;;;;;;4977185;28;20222;-79
2023/01/19 07:24:48;;;;;;;9.18;6.68;;;-8.80;99.90;;;;;;4982550;28;20204;-80
2023/01/19 07:27:15;;;;;;;9.38;6.22;;;-8.80;99.90;;;;;;4978754;28;20224;-79
2023/01/19 07:29:42;;;;;;;5.28;4.72;;;-8.70;99.90;;;;;;4979454;28;20322;-78
2023/01/19 07:32:09;;;;;;;5.78;4.93;;;-8.70;99.90;;;;;;4978896;28;20211;-78
2023/01/19 07:34:35;;;;;;;4.82;4.35;;;-8.60;99.90;;;;;;4979209;28;20217;-78
2023/01/19 07:37:02;;;;;;;5.90;4.20;;;-8.60;99.90;;;;;;4979083;28;20233;-78
2023/01/19 07:39:29;;;;;;;4.50;4.10;;;-8.50;99.90;;;;;;4978617;28;20230;-78
2023/01/19 07:41:58;;;;;;;4.88;4.47;;;-8.50;99.90;;;;;;4979111;28;20243;-78
2023/01/19 07:44:25;;;;;;;4.18;3.80;;;-8.40;99.90;;;;;;4978594;28;20681;-78
2023/01/19 07:46:51;;;;;;;3.75;3.50;;;-8.40;99.90;;;;;;4979128;28;20227;-78
2023/01/19 07:49:19;;;;;;;4.32;3.92;;;-8.30;99.90;;;;;;4978989;28;20223;-78
2023/01/19 07:51:46;;;;;;;8.88;4.15;;;-8.20;99.90;;;;;;4979033;28;20212;-80
2023/01/19 07:54:13;;;;;;;8.88;5.50;;;-8.10;99.90;;;;;;4979370;28;20192;-80
2023/01/19 07:56:39;;;;;;;9.25;6.10;;;-7.70;99.90;;;;;;4978993;28;20206;-78
2023/01/19 07:59:09;;;;;;;8.40;5.93;;;-7.10;99.90;;;;;;4979626;28;20208;-78
2023/01/19 08:01:36;;;;;;;17.42;6.38;;;-6.70;99.90;;;;;;4979027;28;20191;-79
2023/01/19 08:04:03;;;;;;;10.63;6.75;;;-6.50;99.90;;;;;;4979177;28;20226;-78
2023/01/19 08:06:33;;;;;;;12.65;7.13;;;-6.40;99.90;;;;;;4978805;28;20227;-79
2023/01/19 08:09:00;;;;;;;12.25;6.45;;;-6.00;99.90;;;;;;4978937;28;20561;-78
2023/01/19 08:11:27;;;;;;;7.63;6.03;;;-5.80;99.90;;;;;;4979655;28;20210;-78
2023/01/19 08:13:53;;;;;;;9.45;7.30;;;-5.40;99.90;;;;;;4979307;28;20198;-79
2023/01/19 08:16:21;;;;;;;11.43;7.75;;;-4.90;99.90;;;;;;4978918;28;20210;-78
2023/01/19 08:18:48;;;;;;;11.35;6.90;;;-4.40;99.90;;;;;;4979643;28;20207;-79
2023/01/19 08:21:15;;;;;;;10.60;8.45;;;-3.90;99.90;;;;;;4979392;28;20234;-79
2023/01/19 08:23:42;;;;;;;15.90;9.88;;;-3.50;99.90;;;;;;4979511;28;20295;-79
2023/01/19 08:26:19;;;;;;;17.10;10.30;;;-3.10;99.90;;;;;;4979512;28;20203;-80
2023/01/19 08:28:45;;;;;;;16.05;9.77;;;-2.80;99.90;;;;;;4979496;28;20211;-80
2023/01/19 08:31:12;;;;;;;19.80;10.48;;;-2.60;99.90;;;;;;4979953;28;20227;-79
2023/01/19 08:33:41;;;;;;;19.02;9.68;;;-2.20;99.90;;;;;;4980417;28;20203;-81
2023/01/19 08:36:08;;;;;;;20.50;10.10;;;-2.00;99.90;;;;;;4981012;28;20543;-78
2023/01/19 08:38:35;;;;;;;18.77;10.32;;;-1.80;99.90;;;;;;4977603;28;20230;-77
2023/01/19 08:41:02;;;;;;;13.82;8.80;;;-1.80;99.90;;;;;;4977826;28;20718;-77
2023/01/19 08:43:29;;;;;;;15.88;10.02;;;-1.80;99.90;;;;;;4977952;28;20214;-77
2023/01/19 08:45:55;;;;;;;15.95;9.73;;;-1.80;99.90;;;;;;4978187;28;20199;-77
2023/01/19 08:48:23;;;;;;;18.17;10.63;;;-1.80;99.90;;;;;;4977123;28;20223;-77
2023/01/19 08:50:52;;;;;;;18.52;10.82;;;-1.80;99.90;;;;;;4976376;28;20229;-77
2023/01/19 08:53:21;;;;;;;19.80;11.68;;;-2.00;99.90;;;;;;4975576;28;20226;-77
2023/01/19 08:55:49;;;;;;;21.13;12.82;;;-2.20;99.90;;;;;;4976543;28;20239;-78
2023/01/19 08:58:16;;;;;;;25.63;13.50;;;-2.70;99.90;;;;;;4977974;28;20603;-78
2023/01/19 09:00:43;;;;;;;28.55;13.98;;;-2.90;99.90;;;;;;4979542;28;20261;-79
2023/01/19 09:03:12;;;;;;;23.50;12.30;;;-3.10;99.90;;;;;;4979798;28;20294;-75
2023/01/19 09:05:40;;;;;;;35.85;13.20;;;-3.00;99.90;;;;;;4975331;28;20662;-75
2023/01/19 09:08:10;;;;;;;33.40;14.68;;;-3.20;99.90;;;;;;4975752;28;20219;-75
2023/01/19 09:10:37;;;;;;;23.05;12.88;;;-3.30;99.90;;;;;;4975810;28;20231;-78
2023/01/19 09:13:09;;;;;;;20.17;11.15;;;-3.50;99.90;;;;;;4978200;28;20237;-78
2023/01/19 09:15:36;;;;;;;21.50;11.98;;;-3.70;99.90;;;;;;4975448;28;20187;-76
2023/01/19 09:18:04;;;;;;;21.70;12.20;;;-3.90;99.90;;;;;;4975319;28;20202;-76
2023/01/19 09:20:33;;;;;;;21.08;11.63;;;-4.20;99.90;;;;;;4974784;28;20568;-76
2023/01/19 09:23:00;;;;;;;23.45;11.15;;;-4.30;99.90;;;;;;4975059;28;20211;-77
2023/01/19 09:25:28;;;;;;;21.05;11.05;;;-4.50;99.90;;;;;;4975602;28;20548;-77
2023/01/19 09:27:55;;;;;;;19.00;11.00;;;-4.60;99.90;;;;;;4975726;28;20231;-78
2023/01/19 09:30:22;;;;;;;20.25;10.40;;;-4.80;99.90;;;;;;4975914;28;20227;-77
2023/01/19 09:32:49;;;;;;;19.88;11.18;;;-4.70;99.90;;;;;;4975433;28;20199;-77
2023/01/19 09:35:16;;;;;;;22.13;11.52;;;-4.50;99.90;;;;;;4976408;28;20206;-78
2023/01/19 09:37:46;;;;;;;24.95;12.13;;;-4.30;99.90;;;;;;4976810;28;20203;-79
2023/01/19 09:40:15;;;;;;;25.83;11.38;;;-4.10;99.90;;;;;;4976890;28;20254;-78
2023/01/19 09:42:44;;;;;;;22.50;11.68;;;-4.00;99.90;;;;;;4977380;28;20211;-78
2023/01/19 09:45:17;;;;;;;16.35;10.30;;;-3.90;99.90;;;;;;4977378;28;20206;-78
2023/01/19 09:47:47;;;;;;;24.33;11.48;;;-3.70;99.90;;;;;;4976562;28;20675;-78
2023/01/19 09:50:20;;;;;;;20.00;11.57;;;-3.70;99.90;;;;;;4975946;28;20794;-78
2023/01/19 09:52:55;;;;;;;24.35;12.30;;;-3.60;99.90;;;;;;4975848;28;20578;-78
2023/01/19 09:55:25;;;;;;;25.63;12.85;;;-3.50;99.90;;;;;;4976700;28;20191;-78
2023/01/19 09:57:54;;;;;;;23.90;12.90;;;-3.40;99.90;;;;;;4977849;28;20183;-80
2023/01/19 10:00:23;;;;;;;20.33;12.15;;;-3.30;99.90;;;;;;4976895;28;20219;-79
2023/01/19 10:02:55;;;;;;;22.67;12.10;;;-3.30;99.90;;;;;;4976788;28;20200;-78
2023/01/19 10:05:28;;;;;;;29.67;12.48;;;-3.20;99.90;;;;;;4976442;28;20188;-78
2023/01/19 10:08:08;;;;;;;21.10;12.23;;;-3.20;99.90;;;;;;4976962;28;20215;-78
2023/01/19 10:10:36;;;;;;;22.52;12.43;;;-3.20;99.90;;;;;;4977255;28;20247;-79
2023/01/19 10:13:16;;;;;;;21.75;12.35;;;-3.20;99.90;;;;;;4976684;28;20207;-79
2023/01/19 10:15:51;;;;;;;34.58;14.70;;;-3.20;99.90;;;;;;4976623;28;20184;-79
2023/01/19 10:18:24;;;;;;;26.95;12.73;;;-3.20;99.90;;;;;;4976294;28;20241;-78
2023/01/19 10:20:54;;;;;;;21.60;11.60;;;-3.20;99.90;;;;;;4976227;28;20250;-78
2023/01/19 10:23:34;;;;;;;20.23;12.07;;;-3.20;99.90;;;;;;4976731;28;20199;-78
2023/01/19 10:26:08;;;;;;;23.45;12.60;;;-3.20;99.90;;;;;;4975929;28;20588;-78
2023/01/19 10:28:38;;;;;;;23.30;12.98;;;-3.20;99.90;;;;;;4975994;28;20219;-78
2023/01/19 10:31:08;;;;;;;23.92;12.32;;;-3.10;99.90;;;;;;4976289;28;20223;-78
2023/01/19 10:33:35;;;;;;;30.75;12.32;;;-3.10;99.90;;;;;;4976378;28;20195;-78
2023/01/19 10:36:05;;;;;;;21.52;12.20;;;-3.10;99.90;;;;;;4975732;28;20195;-78
2023/01/19 10:38:34;;;;;;;23.40;12.45;;;-3.10;99.90;;;;;;4976070;28;20690;-78
2023/01/19 10:41:05;;;;;;;18.27;11.55;;;-2.90;99.90;;;;;;4976062;28;20227;-78
2023/01/19 10:43:41;;;;;;;24.38;11.48;;;-2.60;99.90;;;;;;4977506;28;20188;-80
2023/01/19 10:46:17;;;;;;;23.92;10.63;;;-2.30;99.90;;;;;;4976816;28;20630;-78
2023/01/19 10:48:47;;;;;;;14.07;9.68;;;-2.20;99.90;;;;;;4975991;28;20211;-78
2023/01/19 10:51:14;;;;;;;15.93;10.00;;;-2.10;99.90;;;;;;4977503;28;20735;-78
2023/01/19 10:53:52;;;;;;;17.27;11.18;;;-2.00;99.90;;;;;;4977185;28;20215;-78
2023/01/19 10:56:23;;;;;;;22.17;12.65;;;-2.00;99.90;;;;;;4978938;28;20223;-79
2023/01/19 10:58:51;;;;;;;17.73;10.85;;;-2.00;99.90;;;;;;4981462;28;20207;-78
2023/01/19 11:01:21;;;;;;;15.80;10.02;;;-1.90;99.90;;;;;;4981237;28;20199;-79
2023/01/19 11:03:49;;;;;;;17.73;9.82;;;-2.00;99.90;;;;;;4981236;28;20231;-79
2023/01/19 11:06:27;;;;;;;20.70;10.60;;;-2.00;99.90;;;;;;4981084;28;20267;-79
2023/01/19 11:09:11;;;;;;;15.95;10.23;;;-1.90;99.90;;;;;;4980063;28;20223;-78
2023/01/19 11:11:43;;;;;;;17.10;9.68;;;-1.90;99.90;;;;;;4981282;28;20210;-79
2023/01/19 11:14:13;;;;;;;18.35;10.05;;;-1.80;99.90;;;;;;4980439;28;20210;-79
2023/01/19 11:16:45;;;;;;;12.75;8.43;;;-1.70;99.90;;;;;;4980658;28;20194;-79
2023/01/19 11:19:20;;;;;;;9.25;6.47;;;-1.60;99.90;;;;;;4980712;28;20226;-79
2023/01/19 11:21:46;;;;;;;5.82;5.32;;;-1.50;99.90;;;;;;4980467;28;20210;-79
2023/01/19 11:24:15;;;;;;;8.32;6.28;;;-1.40;99.90;;;;;;4980691;28;20203;-79
2023/01/19 11:26:44;;;;;;;8.65;6.25;;;-1.30;99.90;;;;;;4981899;28;20239;-80
2023/01/19 11:29:21;;;;;;;7.05;6.25;;;-1.10;99.90;;;;;;4981968;28;20601;-80
2023/01/19 11:31:48;;;;;;;6.03;5.47;;;-1.00;99.90;;;;;;4981556;28;20658;-78
2023/01/19 11:34:25;;;;;;;7.80;5.70;;;-0.90;99.90;;;;;;4981464;28;20199;-79
2023/01/19 11:36:58;;;;;;;5.65;5.10;;;-0.80;99.90;;;;;;4981748;28;20190;-82
2023/01/19 11:39:26;;;;;;;5.65;5.00;;;-0.70;99.90;;;;;;4980922;28;20696;-80
2023/01/19 11:41:58;;;;;;;4.93;4.53;;;-0.60;99.90;;;;;;4981847;28;20204;-80
2023/01/19 11:44:30;;;;;;;5.03;4.50;;;-0.50;99.90;;;;;;4982308;28;20183;-80
2023/01/19 11:46:59;;;;;;;6.30;4.70;;;-0.40;99.90;;;;;;4978396;28;20188;-74
2023/01/19 11:49:34;;;;;;;6.10;4.85;;;-0.20;99.90;;;;;;4976445;28;20223;-74
2023/01/19 11:52:05;;;;;;;7.00;4.45;;;-0.20;99.90;;;;;;4976445;28;20303;-74
2023/01/19 11:54:35;;;;;;;6.57;4.80;;;0.10;99.90;;;;;;4976791;28;20190;-75
2023/01/19 11:57:10;;;;;;;7.57;5.13;;;0.20;99.90;;;;;;4976797;28;20706;-73
2023/01/19 11:59:38;;;;;;;9.80;4.20;;;0.20;99.90;;;;;;4976708;28;20219;-77
2023/01/19 12:02:17;;;;;;;4.60;4.20;;;0.30;99.90;;;;;;4976981;28;20203;-76
2023/01/19 12:04:46;;;;;;;4.60;4.20;;;0.40;99.90;;;;;;4979864;28;20234;-76
2023/01/19 12:07:25;;;;;;;4.88;4.40;;;0.40;99.90;;;;;;4978243;28;20238;-76
2023/01/19 12:09:56;;;;;;;7.28;5.03;;;0.50;99.90;;;;;;4976405;28;20722;-79
2023/01/19 12:12:28;;;;;;;5.65;5.07;;;0.30;99.90;;;;;;5000163;23;20224;-73
2023/01/19 12:15:00;;;;;;;7.80;5.28;;;0.30;99.90;;;;;;4976315;28;20194;-72
2023/01/19 12:17:30;;;;;;;7.38;5.47;;;0.10;99.90;;;;;;4976345;28;20191;-72
2023/01/19 12:20:05;;;;;;;6.90;5.32;;;0.00;99.90;;;;;;4976753;28;20211;-73
2023/01/19 12:22:36;;;;;;;8.20;6.35;;;0.00;99.90;;;;;;4976069;28;20293;-73
2023/01/19 12:25:14;;;;;;;7.38;5.95;;;0.10;99.90;;;;;;4976134;28;20191;-73
2023/01/19 12:27:43;;;;;;;9.30;5.97;;;0.00;99.90;;;;;;4978216;28;20191;-73
2023/01/19 12:30:19;;;;;;;6.13;4.80;;;0.00;99.90;;;;;;4980371;28;20609;-73
2023/01/19 12:32:46;;;;;;;8.13;6.18;;;-0.10;99.90;;;;;;4980496;28;20218;-72
2023/01/19 12:35:49;;;;;;;6.65;5.93;;;-0.10;99.90;;;;;;4979982;28;20203;-74
2023/01/19 12:38:41;;;;;;;7.47;5.72;;;-0.10;99.90;;;;;;4980724;28;20565;-74
2023/01/19 12:41:28;;;;;;;8.65;5.35;;;-0.20;99.90;;;;;;4980854;28;20242;-74
2023/01/19 12:44:20;;;;;;;7.57;6.47;;;-0.20;99.90;;;;;;4980691;28;20254;-74
2023/01/19 12:46:54;;;;;;;7.00;5.90;;;-0.10;99.90;;;;;;4980552;28;20207;-74
2023/01/19 12:49:26;;;;;;;6.03;5.45;;;-0.20;99.90;;;;;;4978715;28;20211;-74
2023/01/19 12:52:10;;;;;;;7.10;5.45;;;-0.20;99.90;;;;;;4975584;28;20237;-74
2023/01/19 12:54:40;;;;;;;6.45;5.53;;;-0.20;99.90;;;;;;4975459;28;20705;-75
2023/01/19 12:57:19;;;;;;;8.35;5.20;;;-0.20;99.90;;;;;;4975715;28;20214;-73
2023/01/19 12:59:46;;;;;;;5.82;5.07;;;-0.30;99.90;;;;;;4975707;28;20179;-73
2023/01/19 13:02:45;;;;;;;8.23;5.93;;;-0.40;99.90;;;;;;4975568;28;20227;-73
2023/01/19 13:05:22;;;;;;;6.32;5.72;;;-0.40;99.90;;;;;;4964773;28;20238;-71
2023/01/19 13:08:13;;;;;;;6.47;5.60;;;-0.30;99.90;;;;;;4977147;28;20191;-71
2023/01/19 13:11:18;;;;;;;7.10;5.75;;;-0.30;99.90;;;;;;4976003;28;20602;-71
2023/01/19 13:14:04;;;;;;;6.57;5.85;;;-0.30;99.90;;;;;;4975515;28;20211;-71
2023/01/19 13:17:02;;;;;;;9.00;5.95;;;-0.20;99.90;;;;;;4975746;28;20191;-71
2023/01/19 13:19:46;;;;;;;6.28;5.55;;;-0.10;99.90;;;;;;4974992;28;20693;-71
2023/01/19 13:22:48;;;;;;;6.60;5.82;;;-0.20;99.90;;;;;;4975127;28;20223;-71
2023/01/19 13:25:27;;;;;;;6.65;5.38;;;-0.20;99.90;;;;;;4975011;28;20544;-71
2023/01/19 13:27:54;;;;;;;6.00;5.40;;;-0.20;99.90;;;;;;4975629;28;20183;-71
2023/01/19 13:30:25;;;;;;;7.03;6.20;;;-0.10;99.90;;;;;;4975170;28;20207;-70
2023/01/19 13:32:53;;;;;;;7.68;5.60;;;-0.20;99.90;;;;;;4975097;28;20262;-71
2023/01/19 13:35:20;;;;;;;6.15;5.53;;;-0.30;99.90;;;;;;4975160;28;20230;-72
2023/01/19 13:37:48;;;;;;;9.07;6.90;;;-0.30;99.90;;;;;;4974842;28;20685;-72
2023/01/19 13:40:23;;;;;;;10.18;7.40;;;-0.40;99.90;;;;;;4975275;28;20203;-72
2023/01/19 13:42:52;;;;;;;6.28;5.70;;;-0.40;99.90;;;;;;4974866;28;20710;-72
2023/01/19 13:45:28;;;;;;;5.45;4.95;;;-0.40;99.90;;;;;;4974901;28;20226;-73
2023/01/19 13:47:58;;;;;;;6.22;5.10;;;-0.40;99.90;;;;;;4974580;28;20195;-73
2023/01/19 13:50:28;;;;;;;7.00;5.05;;;-0.40;99.90;;;;;;4974797;28;20207;-73
2023/01/19 13:52:57;;;;;;;8.65;5.93;;;-0.40;99.90;;;;;;4975020;28;20215;-73
2023/01/19 13:55:27;;;;;;;6.63;5.68;;;-0.40;99.90;;;;;;4974611;28;20203;-73
2023/01/19 13:57:54;;;;;;;9.60;5.45;;;-0.40;99.90;;;;;;4975008;28;20331;-72
2023/01/19 14:00:23;;;;;;;8.77;5.30;;;-0.40;99.90;;;;;;4975051;28;20239;-73
2023/01/19 14:02:56;;;;;;;5.75;5.25;;;-0.40;99.90;;;;;;4975005;28;20250;-74
2023/01/19 14:05:25;;;;;;;7.38;5.88;;;-0.50;99.90;;;;;;4974756;28;20199;-73
2023/01/19 14:08:11;;;;;;;5.68;5.03;;;-0.60;99.90;;;;;;4974862;28;20207;-73
2023/01/19 14:10:42;;;;;;;8.02;5.22;;;-0.50;99.90;;;;;;4975039;28;20192;-72
2023/01/19 14:13:15;;;;;;;7.53;5.57;;;-0.60;99.90;;;;;;4974755;28;20339;-72
2023/01/19 14:15:43;;;;;;;8.20;5.80;;;-0.60;99.90;;;;;;4974722;28;20219;-72
2023/01/19 14:18:26;;;;;;;11.18;6.10;;;-0.70;99.90;;;;;;4974772;28;20203;-72
2023/01/19 14:20:55;;;;;;;7.72;6.10;;;-0.60;99.90;;;;;;4973082;28;20555;-72
2023/01/19 14:23:42;;;;;;;7.93;5.78;;;-0.60;99.90;;;;;;4975269;28;20235;-73
2023/01/19 14:26:42;;;;;;;5.63;4.60;;;-0.60;99.90;;;;;;4974571;28;20191;-73
2023/01/19 14:29:23;;;;;;;5.88;5.10;;;-0.60;99.90;;;;;;4974527;28;20302;-73
2023/01/19 14:31:52;;;;;;;5.93;4.88;;;-0.60;99.90;;;;;;4975102;28;20223;-73
2023/01/19 14:34:32;;;;;;;40.05;17.05;;;-0.60;99.90;;;;;;4978552;28;20235;-71
2023/01/19 14:37:00;;;;;;;9.57;6.10;;;-0.60;99.90;;;;;;4978109;28;20207;-71
2023/01/19 14:39:29;;;;;;;6.72;5.32;;;-0.60;99.90;;;;;;4978113;28;20203;-71
2023/01/19 14:42:00;;;;;;;8.98;5.10;;;-0.60;99.90;;;;;;4978053;28;20246;-71
2023/01/19 14:44:31;;;;;;;5.43;4.85;;;-0.60;99.90;;;;;;4978006;28;20191;-71
2023/01/19 14:46:58;;;;;;;5.55;4.70;;;-0.60;99.90;;;;;;4977762;28;20635;-71
2023/01/19 14:49:31;;;;;;;5.95;5.22;;;-0.70;99.90;;;;;;4978200;28;20219;-71
2023/01/19 14:51:58;;;;;;;8.93;6.13;;;-0.70;99.90;;;;;;4977947;28;20220;-71
2023/01/19 14:54:30;;;;;;;8.00;5.97;;;-0.60;99.90;;;;;;4977969;28;20573;-71
2023/01/19 14:56:58;;;;;;;5.40;4.90;;;-0.70;99.90;;;;;;4977867;28;20192;-71
2023/01/19 14:59:25;;;;;;;6.85;5.10;;;-0.70;99.90;;;;;;4977812;28;20210;-72
2023/01/19 15:01:52;;;;;;;5.97;5.28;;;-0.80;99.90;;;;;;4978035;28;20219;-72
2023/01/19 15:04:19;;;;;;;5.45;4.85;;;-0.80;99.90;;;;;;4977827;28;20204;-72
2023/01/19 15:06:47;;;;;;;6.20;4.97;;;-0.80;99.90;;;;;;4978123;28;20196;-73
2023/01/19 15:09:15;;;;;;;5.22;4.75;;;-0.90;99.90;;;;;;4978544;28;20230;-73
2023/01/19 15:11:43;;;;;;;5.20;4.75;;;-0.90;99.90;;;;;;4978504;28;20239;-72
2023/01/19 15:14:13;;;;;;;5.35;4.85;;;-1.00;99.90;;;;;;4978096;28;20533;-73
2023/01/19 15:16:40;;;;;;;11.75;5.13;;;-1.00;99.90;;;;;;4977581;28;20235;-73
2023/01/19 15:19:11;;;;;;;5.53;4.70;;;-1.10;99.90;;;;;;4977207;28;20199;-74
2023/01/19 15:21:40;;;;;;;5.07;4.63;;;-1.10;99.90;;;;;;4977587;28;20227;-74
2023/01/19 15:24:08;;;;;;;5.43;4.90;;;-1.10;99.90;;;;;;4977529;28;20203;-73
2023/01/19 15:26:36;;;;;;;6.78;5.30;;;-1.20;99.90;;;;;;4977448;28;20246;-73
2023/01/19 15:29:10;;;;;;;4.93;4.40;;;-1.20;99.90;;;;;;4977239;28;20219;-73
2023/01/19 15:31:38;;;;;;;5.53;4.47;;;-1.20;99.90;;;;;;4977358;28;20230;-73
2023/01/19 15:34:05;;;;;;;6.55;4.80;;;-1.30;99.90;;;;;;4977236;28;20208;-73
2023/01/19 15:36:31;;;;;;;7.70;5.43;;;-1.30;99.90;;;;;;4977226;28;20207;-73
2023/01/19 15:38:58;;;;;;;7.25;5.25;;;-1.30;99.90;;;;;;4977216;28;20204;-73
2023/01/19 15:41:28;;;;;;;9.52;5.15;;;-1.40;99.90;;;;;;4977006;28;20203;-73
2023/01/19 15:43:55;;;;;;;5.72;5.07;;;-1.40;99.90;;;;;;4976306;28;20254;-73
2023/01/19 15:46:24;;;;;;;5.30;4.80;;;-1.40;99.90;;;;;;4977015;28;20210;-73
2023/01/19 15:48:53;;;;;;;8.18;5.30;;;-1.40;99.90;;;;;;4976925;28;20219;-73
2023/01/19 15:51:21;;;;;;;5.93;4.82;;;-1.40;99.90;;;;;;4976895;28;20207;-73
2023/01/19 15:53:49;;;;;;;6.25;4.95;;;-1.40;99.90;;;;;;4976904;28;20206;-74
2023/01/19 15:56:16;;;;;;;7.95;5.55;;;-1.50;99.90;;;;;;4977132;28;20187;-73
2023/01/19 15:58:43;;;;;;;8.13;6.28;;;-1.50;99.90;;;;;;4989337;28;20229;-73
2023/01/19 16:01:13;;;;;;;7.25;5.97;;;-1.50;99.90;;;;;;4995783;28;20226;-73
2023/01/19 16:03:39;;;;;;;8.65;6.63;;;-1.50;99.90;;;;;;4994955;28;20244;-73
2023/01/19 16:06:09;;;;;;;8.70;6.53;;;-1.60;99.90;;;;;;4983074;28;20662;-73
2023/01/19 16:08:35;;;;;;;9.77;6.55;;;-1.60;99.90;;;;;;4978759;28;20207;-73
2023/01/19 16:11:06;;;;;;;7.63;5.63;;;-1.60;99.90;;;;;;4978059;28;20226;-73
2023/01/19 16:13:32;;;;;;;10.07;6.47;;;-1.60;99.90;;;;;;4976631;28;20211;-71
2023/01/19 16:16:03;;;;;;;7.75;6.15;;;-1.60;99.90;;;;;;4976813;28;20230;-71
2023/01/19 16:18:29;;;;;;;7.05;5.63;;;-1.60;99.90;;;;;;4976751;28;20215;-70
2023/01/19 16:20:56;;;;;;;5.07;4.10;;;-1.60;99.90;;;;;;4976464;28;20206;-70
2023/01/19 16:23:24;;;;;;;8.27;5.35;;;-1.70;99.90;;;;;;4976695;28;20219;-71
2023/01/19 16:25:58;;;;;;;7.10;6.00;;;-1.70;99.90;;;;;;4976373;28;20210;-71
2023/01/19 16:28:25;;;;;;;9.77;7.63;;;-1.70;99.90;;;;;;4976140;28;20203;-71
2023/01/19 16:30:52;;;;;;;8.98;7.28;;;-1.70;99.90;;;;;;4976776;28;20230;-71
2023/01/19 16:33:19;;;;;;;7.32;6.25;;;-1.70;99.90;;;;;;4976662;28;20230;-71
2023/01/19 16:35:45;;;;;;;6.35;5.30;;;-1.80;99.90;;;;;;4975987;28;20203;-71
2023/01/19 16:38:12;;;;;;;6.00;4.53;;;-1.80;99.90;;;;;;4976003;28;20261;-71
2023/01/19 16:40:40;;;;;;;5.32;4.65;;;-1.80;99.90;;;;;;4976087;28;20239;-71
2023/01/19 16:43:07;;;;;;;4.75;4.38;;;-1.80;99.90;;;;;;4977301;28;20253;-71
2023/01/19 16:45:33;;;;;;;6.30;4.90;;;-1.80;99.90;;;;;;4977561;28;20207;-71
2023/01/19 16:48:00;;;;;;;5.50;5.00;;;-1.80;99.90;;;;;;4976217;28;20207;-71
2023/01/19 16:50:27;;;;;;;5.93;5.38;;;-1.90;99.90;;;;;;4975794;28;20253;-72
2023/01/19 16:52:56;;;;;;;6.82;6.22;;;-1.90;99.90;;;;;;4975444;28;20638;-71
2023/01/19 16:55:23;;;;;;;7.05;6.35;;;-1.90;99.90;;;;;;4975168;28;20670;-70
2023/01/19 16:57:51;;;;;;;7.38;6.30;;;-1.90;99.90;;;;;;4975991;28;20203;-70
2023/01/19 17:00:18;;;;;;;7.38;6.05;;;-1.90;99.90;;;;;;4975666;28;20230;-70
2023/01/19 17:02:45;;;;;;;6.18;5.57;;;-1.90;99.90;;;;;;4975619;28;20266;-70
2023/01/19 17:05:13;;;;;;;5.13;4.68;;;-1.90;99.90;;;;;;4975359;28;20214;-70
2023/01/19 17:07:40;;;;;;;6.25;5.20;;;-1.90;99.90;;;;;;4975395;28;20298;-71
2023/01/19 17:10:08;;;;;;;5.85;4.82;;;-1.90;99.90;;;;;;4975445;28;20225;-71
2023/01/19 17:12:34;;;;;;;5.80;5.10;;;-1.90;99.90;;;;;;4975188;28;20227;-71
2023/01/19 17:15:03;;;;;;;8.00;5.25;;;-1.90;99.90;;;;;;4975381;28;20203;-71
2023/01/19 17:17:29;;;;;;;5.85;5.35;;;-1.90;99.90;;;;;;4974962;28;20255;-70
2023/01/19 17:19:56;;;;;;;5.63;5.13;;;-2.00;99.90;;;;;;4975302;28;20222;-71
2023/01/19 17:22:23;;;;;;;7.20;5.68;;;-2.00;99.90;;;;;;4975201;28;20305;-71
2023/01/19 17:24:49;;;;;;;7.75;5.13;;;-2.00;99.90;;;;;;4975155;28;20215;-71
2023/01/19 17:27:17;;;;;;;7.53;5.07;;;-2.10;99.90;;;;;;4975312;28;20203;-70
2023/01/19 17:29:43;;;;;;;7.22;4.90;;;-2.00;99.90;;;;;;4974873;28;20782;-71
2023/01/19 17:32:11;;;;;;;6.13;5.10;;;-2.00;99.90;;;;;;4974769;28;20595;-70
2023/01/19 17:34:38;;;;;;;5.47;5.03;;;-2.10;99.90;;;;;;4975071;28;20207;-70
2023/01/19 17:37:05;;;;;;;10.52;7.32;;;-2.10;99.90;;;;;;4974973;28;20214;-70
2023/01/19 17:39:31;;;;;;;24.10;12.93;;;-2.10;99.90;;;;;;4974704;28;20639;-70
2023/01/19 17:41:58;;;;;;;23.55;11.85;;;-2.10;99.90;;;;;;4974897;28;20223;-70
2023/01/19 17:44:25;;;;;;;12.60;8.38;;;-2.10;99.90;;;;;;4975188;28;20210;-70
2023/01/19 17:46:51;;;;;;;17.15;8.48;;;-2.10;99.90;;;;;;4975035;28;20214;-70